createdAt,value
2023-09-08T00:02:23.164Z,32.80
2023-09-08T00:05:15.767Z,33.00
2023-09-08T00:08:08.914Z,28.90
2023-09-08T00:11:01.915Z,34.30
2023-09-08T00:13:54.730Z,28.80
2023-09-08T00:16:49.727Z,32.10
2023-09-08T00:19:42.955Z,28.00
2023-09-08T00:22:37.413Z,25.10
2023-09-08T00:25:30.270Z,26.00
2023-09-08T00:28:23.024Z,27.00
2023-09-08T00:31:15.651Z,27.10
2023-09-08T00:34:09.529Z,27.70
2023-09-08T00:37:26.056Z,25.90
2023-09-08T00:40:19.087Z,28.50
2023-09-08T00:43:13.548Z,26.80
2023-09-08T00:46:06.526Z,28.10
2023-09-08T00:49:01.885Z,26.40
2023-09-08T00:51:55.156Z,29.30
2023-09-08T00:54:48.939Z,27.20
2023-09-08T00:57:41.764Z,31.30
2023-09-08T01:00:35.049Z,27.40
2023-09-08T01:03:16.555Z,25.90
2023-09-08T01:06:10.283Z,26.80
2023-09-08T01:09:03.857Z,27.80
2023-09-08T01:12:01.912Z,29.20
2023-09-08T01:14:54.693Z,26.60
2023-09-08T01:17:27.649Z,29.40
2023-09-08T01:20:26.077Z,32.20
2023-09-08T01:23:30.669Z,26.70
2023-09-08T01:26:28.139Z,27.30
2023-09-08T01:29:21.852Z,28.90
2023-09-08T01:32:15.903Z,26.70
2023-09-08T01:35:09.932Z,27.30
2023-09-08T01:38:02.620Z,26.60
2023-09-08T01:40:55.302Z,26.30
2023-09-08T01:43:50.207Z,27.00
2023-09-08T01:46:43.053Z,142.10
2023-09-08T01:49:38.139Z,28.60
2023-09-08T01:52:31.105Z,31.00
2023-09-08T01:55:23.729Z,27.50
2023-09-08T01:58:16.535Z,26.70
2023-09-08T02:01:07.401Z,25.70
2023-09-08T02:04:00.247Z,26.00
2023-09-08T02:06:54.301Z,24.00
2023-09-08T02:09:47.360Z,26.90
2023-09-08T02:12:43.656Z,23.60
2023-09-08T02:15:38.907Z,25.50
2023-09-08T02:18:32.173Z,25.50
2023-09-08T02:21:24.976Z,25.20
2023-09-08T02:24:20.048Z,25.40
2023-09-08T02:27:12.757Z,24.70
2023-09-08T02:30:07.759Z,26.20
2023-09-08T02:33:00.537Z,25.30
2023-09-08T02:35:54.251Z,24.40
2023-09-08T02:38:47.032Z,27.30
2023-09-08T02:41:42.539Z,27.90
2023-09-08T02:44:36.052Z,28.60
2023-09-08T02:47:30.004Z,32.10
2023-09-08T02:50:23.324Z,36.80
2023-09-08T02:53:16.090Z,29.30
2023-09-08T02:56:10.550Z,42.70
2023-09-08T02:59:03.238Z,38.60
2023-09-08T03:01:56.037Z,32.60
2023-09-08T03:04:49.604Z,31.60
2023-09-08T03:07:42.341Z,31.70
2023-09-08T03:10:37.583Z,30.30
2023-09-08T03:13:13.532Z,31.00
2023-09-08T03:16:10.625Z,31.00
2023-09-08T03:19:03.560Z,32.20
2023-09-08T03:21:56.322Z,29.20
2023-09-08T03:24:42.706Z,26.40
2023-09-08T03:27:34.033Z,27.00
2023-09-08T03:30:29.850Z,27.00
2023-09-08T03:33:22.750Z,27.20
2023-09-08T03:36:16.634Z,29.10
2023-09-08T03:39:11.007Z,46.50
2023-09-08T03:42:03.994Z,30.40
2023-09-08T03:44:56.745Z,27.50
2023-09-08T03:47:49.494Z,33.60
2023-09-08T03:50:43.369Z,33.00
2023-09-08T03:53:36.923Z,183.40
2023-09-08T03:56:22.812Z,109.80
2023-09-08T03:59:16.180Z,46.90
2023-09-08T04:02:09.012Z,82.10
2023-09-08T04:05:02.293Z,35.80
2023-09-08T04:07:55.332Z,55.00
2023-09-08T04:10:48.471Z,82.40
2023-09-08T04:13:41.152Z,89.90
2023-09-08T04:16:34.828Z,66.50
2023-09-08T04:19:28.044Z,50.10
2023-09-08T04:22:21.584Z,55.30
2023-09-08T04:25:15.548Z,35.50
2023-09-08T04:28:10.001Z,34.80
2023-09-08T04:31:03.411Z,31.10
2023-09-08T04:33:57.584Z,52.20
2023-09-08T04:36:50.220Z,38.70
2023-09-08T04:39:43.242Z,41.30
2023-09-08T04:42:36.239Z,38.00
2023-09-08T04:45:29.351Z,35.60
2023-09-08T04:48:15.442Z,37.90
2023-09-08T04:51:08.809Z,30.10
2023-09-08T04:54:01.440Z,31.30
2023-09-08T04:56:57.031Z,38.00
2023-09-08T04:59:56.983Z,46.00
2023-09-08T05:02:50.175Z,52.10
2023-09-08T05:05:35.825Z,52.90
2023-09-08T05:08:28.573Z,49.20
2023-09-08T05:11:21.461Z,52.00
2023-09-08T05:14:14.610Z,62.10
2023-09-08T05:17:07.757Z,42.30
2023-09-08T05:19:56.309Z,30.60
2023-09-08T05:22:49.047Z,28.90
2023-09-08T05:25:43.980Z,29.30
2023-09-08T05:28:39.404Z,34.10
2023-09-08T05:31:34.209Z,24.60
2023-09-08T05:34:26.932Z,22.70
2023-09-08T05:37:19.699Z,22.90
2023-09-08T05:40:13.498Z,27.60
2023-09-08T05:43:07.827Z,24.60
2023-09-08T05:46:00.689Z,27.90
2023-09-08T05:48:53.555Z,30.30
2023-09-08T05:51:46.507Z,30.20
2023-09-08T05:54:40.110Z,26.00
2023-09-08T05:57:32.831Z,26.10
2023-09-08T06:00:25.614Z,25.50
2023-09-08T06:03:18.401Z,26.10
2023-09-08T06:06:12.542Z,25.10
2023-09-08T06:09:09.099Z,25.20
2023-09-08T06:11:55.196Z,25.40
2023-09-08T06:14:48.395Z,26.50
2023-09-08T06:17:35.560Z,30.20
2023-09-08T06:20:29.263Z,29.20
2023-09-08T06:23:25.838Z,28.20
2023-09-08T06:26:18.176Z,28.80
2023-09-08T06:29:11.180Z,30.80
2023-09-08T06:32:04.040Z,29.90
2023-09-08T06:34:56.786Z,28.80
2023-09-08T06:37:49.588Z,29.80
2023-09-08T06:40:42.674Z,31.40
2023-09-08T06:43:35.253Z,31.40
2023-09-08T06:46:28.226Z,31.00
2023-09-08T06:49:21.375Z,33.40
2023-09-08T06:52:14.482Z,36.30
2023-09-08T06:55:08.139Z,32.80
2023-09-08T06:58:00.867Z,31.50
2023-09-08T07:00:55.786Z,31.00
2023-09-08T07:03:49.149Z,33.10
2023-09-08T07:06:43.076Z,34.60
2023-09-08T07:09:36.846Z,36.40
2023-09-08T07:12:29.669Z,35.20
2023-09-08T07:15:22.262Z,33.90
2023-09-08T07:18:15.333Z,33.10
2023-09-08T07:21:08.370Z,35.50
2023-09-08T07:24:01.792Z,35.40
2023-09-08T07:26:56.431Z,33.10
2023-09-08T07:29:50.795Z,35.00
2023-09-08T07:32:44.032Z,32.30
2023-09-08T07:35:38.507Z,34.10
2023-09-08T07:38:31.433Z,33.10
2023-09-08T07:41:24.822Z,34.60
2023-09-08T07:44:17.752Z,35.20
2023-09-08T07:46:59.631Z,30.00
2023-09-08T07:49:52.412Z,28.90
2023-09-08T07:52:35.328Z,32.50
2023-09-08T07:55:30.067Z,33.60
2023-09-08T07:58:23.954Z,32.50
2023-09-08T08:01:17.308Z,31.20
2023-09-08T08:04:10.604Z,32.00
2023-09-08T08:07:03.514Z,30.30
2023-09-08T08:09:56.578Z,28.90
2023-09-08T08:12:49.463Z,31.40
2023-09-08T08:15:23.638Z,31.20
2023-09-08T08:18:16.808Z,33.00
2023-09-08T08:21:09.480Z,29.60
2023-09-08T08:24:01.303Z,28.80
2023-09-08T08:26:54.292Z,29.40
2023-09-08T08:29:46.909Z,28.20
2023-09-08T08:32:39.432Z,29.50
2023-09-08T08:35:25.736Z,29.70
2023-09-08T08:38:18.500Z,30.00
2023-09-08T08:41:11.275Z,28.80
2023-09-08T08:44:04.446Z,31.10
2023-09-08T08:46:58.160Z,30.00
2023-09-08T08:49:50.833Z,28.10
2023-09-08T08:52:43.130Z,31.90
2023-09-08T08:55:36.682Z,29.40
2023-09-08T08:58:30.233Z,29.50
2023-09-08T09:01:23.439Z,28.90
2023-09-08T09:04:16.865Z,27.80
2023-09-08T09:07:10.313Z,28.80
2023-09-08T09:10:01.817Z,25.30
2023-09-08T09:12:54.844Z,23.10
2023-09-08T09:15:48.254Z,23.40
2023-09-08T09:18:59.878Z,22.40
2023-09-08T09:21:52.608Z,20.70
2023-09-08T09:24:46.497Z,20.80
2023-09-08T09:27:38.991Z,21.30
2023-09-08T09:30:25.883Z,17.50
2023-09-08T09:33:09.356Z,17.00
2023-09-08T09:36:02.174Z,19.00
2023-09-08T09:39:00.157Z,20.30
2023-09-08T09:41:55.732Z,16.90
2023-09-08T09:44:49.139Z,19.20
2023-09-08T09:47:40.887Z,19.30
2023-09-08T09:50:35.534Z,15.30
2023-09-08T09:53:27.682Z,17.70
2023-09-08T09:56:22.849Z,17.20
2023-09-08T09:59:16.898Z,15.30
2023-09-08T10:02:14.835Z,15.30
2023-09-08T10:05:16.547Z,14.10
2023-09-08T10:08:11.668Z,14.10
2023-09-08T10:11:02.367Z,16.00
2023-09-08T10:13:49.194Z,14.10
2023-09-08T10:16:45.601Z,14.10
2023-09-08T10:19:44.245Z,14.80
2023-09-08T11:20:32.614Z,15.90
2023-09-08T11:23:06.407Z,12.20
2023-09-08T11:25:39.355Z,11.80
2023-09-08T11:28:24.135Z,12.60
2023-09-08T11:30:58.549Z,10.30
2023-09-08T11:33:42.598Z,12.90
2023-09-08T11:36:20.035Z,12.70
2023-09-08T11:38:52.799Z,12.20
2023-09-08T11:41:30.426Z,11.90
2023-09-08T11:44:08.728Z,11.80
2023-09-08T11:46:42.879Z,12.30
2023-09-08T11:49:24.159Z,10.40
2023-09-08T11:51:58.470Z,10.90
2023-09-08T11:54:51.962Z,10.80
2023-09-08T11:57:38.307Z,14.30
2023-09-08T12:00:17.181Z,12.20
2023-09-08T12:02:52.687Z,9.80
2023-09-08T12:05:52.863Z,14.30
2023-09-08T12:08:30.509Z,11.20
2023-09-08T12:11:03.260Z,11.50
2023-09-08T12:13:38.558Z,11.60
2023-09-08T12:16:23.537Z,13.80
2023-09-08T12:18:56.369Z,11.70
2023-09-08T12:21:29.040Z,10.20
2023-09-08T12:24:04.777Z,10.80
2023-09-08T12:26:40.039Z,9.80
2023-09-08T12:29:17.756Z,12.40
2023-09-08T12:31:50.157Z,11.60
2023-09-08T12:34:25.302Z,13.70
2023-09-08T12:37:00.688Z,11.10
2023-09-08T12:39:33.207Z,11.60
2023-09-08T12:42:08.764Z,12.20
2023-09-08T12:44:42.893Z,10.50
2023-09-08T12:47:15.802Z,10.20
2023-09-08T12:49:51.537Z,9.60
2023-09-08T12:52:27.259Z,10.60
2023-09-08T12:55:00.817Z,13.00
2023-09-08T12:57:33.318Z,10.80
2023-09-08T13:00:08.604Z,10.30
2023-09-08T13:02:42.779Z,11.20
2023-09-08T13:05:15.573Z,9.90
2023-09-08T13:07:48.365Z,10.00
2023-09-08T13:10:21.385Z,12.60
2023-09-08T13:12:54.307Z,8.90
2023-09-08T13:15:37.586Z,10.50
2023-09-08T13:18:10.424Z,11.20
2023-09-08T13:20:43.022Z,11.10
2023-09-08T13:23:16.006Z,10.50
2023-09-08T13:25:53.045Z,10.70
2023-09-08T13:28:28.097Z,10.40
2023-09-08T13:31:00.985Z,10.50
2023-09-08T13:33:37.384Z,10.50
2023-09-08T13:36:12.218Z,10.10
2023-09-08T13:38:46.647Z,10.10
2023-09-08T13:41:19.592Z,11.50
2023-09-08T13:43:52.261Z,12.10
2023-09-08T13:46:27.980Z,9.20
2023-09-08T13:49:05.027Z,10.90
2023-09-08T13:51:42.552Z,10.20
2023-09-08T13:54:18.199Z,11.70
2023-09-08T13:57:03.357Z,11.50
2023-09-08T13:59:42.456Z,10.40
2023-09-08T14:02:39.784Z,10.10
2023-09-08T14:05:11.215Z,10.20
2023-09-08T14:07:46.746Z,9.90
2023-09-08T14:13:00.085Z,12.10
2023-09-08T14:15:34.599Z,11.60
2023-09-08T14:18:07.859Z,10.30
2023-09-08T14:20:40.440Z,12.50
2023-09-08T14:23:13.063Z,10.10
2023-09-08T14:25:48.149Z,10.70
2023-09-08T14:28:35.051Z,10.90
2023-09-08T14:31:08.451Z,10.70
2023-09-08T14:33:41.394Z,12.20
2023-09-08T14:36:18.830Z,9.70
2023-09-08T14:41:25.276Z,10.20
2023-09-08T14:44:00.744Z,9.70
2023-09-08T14:46:36.276Z,9.90
2023-09-08T14:49:20.169Z,9.90
2023-09-08T14:51:52.866Z,10.50
2023-09-08T14:54:27.563Z,11.10
2023-09-08T14:57:20.321Z,11.60
2023-09-08T14:59:58.315Z,11.50
2023-09-08T15:02:34.489Z,13.00
2023-09-08T15:05:07.884Z,11.50
2023-09-08T15:07:43.246Z,9.00
2023-09-08T15:10:15.859Z,11.10
2023-09-08T15:12:51.406Z,10.90
2023-09-08T15:15:26.949Z,10.40
2023-09-08T15:18:23.796Z,10.70
2023-09-08T15:20:59.160Z,9.50
2023-09-08T15:23:35.376Z,11.00
2023-09-08T15:26:22.395Z,10.30
2023-09-08T15:29:16.433Z,10.80
2023-09-08T15:31:59.720Z,9.90
2023-09-08T15:34:44.510Z,9.50
2023-09-08T15:37:30.399Z,10.60
2023-09-08T15:40:15.640Z,13.50
2023-09-08T15:42:50.263Z,11.90
2023-09-08T15:45:34.491Z,10.90
2023-09-08T15:48:09.962Z,13.60
2023-09-08T15:50:42.617Z,11.50
2023-09-08T15:53:18.225Z,10.70
2023-09-08T15:55:50.957Z,13.80
2023-09-08T15:58:27.550Z,14.60
2023-09-08T16:01:10.486Z,13.20
2023-09-08T16:03:46.543Z,11.00
2023-09-08T16:06:25.699Z,11.60
2023-09-08T16:08:58.137Z,12.40
2023-09-08T16:11:41.144Z,12.40
2023-09-08T16:14:16.262Z,14.20
2023-09-08T16:16:48.903Z,12.40
2023-09-08T16:19:24.784Z,14.00
2023-09-08T16:22:09.092Z,15.70
2023-09-08T16:24:51.890Z,13.10
2023-09-08T16:27:35.023Z,13.80
2023-09-08T16:30:18.181Z,17.30
2023-09-08T16:33:11.118Z,13.10
2023-09-08T16:36:06.262Z,13.20
2023-09-08T16:38:41.295Z,34.00
2023-09-08T16:41:17.182Z,70.10
2023-09-08T16:43:55.207Z,74.70
2023-09-08T16:46:31.048Z,30.30
2023-09-08T16:49:03.827Z,27.10
2023-09-08T16:51:36.570Z,19.00
2023-09-08T16:54:13.500Z,17.40
2023-09-08T16:56:57.398Z,16.20
2023-09-08T16:59:30.562Z,18.90
2023-09-08T17:02:13.862Z,21.10
2023-09-08T17:04:47.414Z,18.60
2023-09-08T17:07:20.255Z,18.20
2023-09-08T17:09:56.227Z,17.10
2023-09-08T17:12:29.912Z,19.90
2023-09-08T17:15:06.671Z,17.60
2023-09-08T17:17:39.573Z,19.30
2023-09-08T17:20:26.047Z,19.50
2023-09-08T17:23:02.489Z,21.90
2023-09-08T17:25:34.982Z,23.50
2023-09-08T17:28:07.938Z,19.20
2023-09-08T17:30:41.906Z,17.60
2023-09-08T17:33:16.912Z,21.50
2023-09-08T17:35:52.092Z,20.60
2023-09-08T17:38:27.439Z,18.10
2023-09-08T17:41:10.245Z,20.20
2023-09-08T17:43:46.729Z,19.30
2023-09-08T17:46:19.525Z,19.50
2023-09-08T17:48:55.496Z,19.80
2023-09-08T17:51:27.778Z,20.50
2023-09-08T17:54:00.732Z,23.90
2023-09-08T17:56:33.304Z,21.20
2023-09-08T17:59:06.338Z,19.10
2023-09-08T18:01:40.247Z,23.40
2023-09-08T18:04:23.032Z,25.70
2023-09-08T18:06:57.931Z,26.20
2023-09-08T18:09:41.045Z,23.60
2023-09-08T18:12:34.514Z,20.20
2023-09-08T18:15:13.344Z,20.10
2023-09-08T18:17:48.637Z,26.30
2023-09-08T18:20:21.933Z,24.10
2023-09-08T18:22:55.875Z,21.20
2023-09-08T18:25:28.749Z,24.10
2023-09-08T18:28:01.585Z,27.50
2023-09-08T18:30:34.468Z,24.70
2023-09-08T18:33:07.602Z,21.60
2023-09-08T18:35:41.431Z,22.40
2023-09-08T18:38:15.119Z,25.80
2023-09-08T18:40:50.431Z,25.50
2023-09-08T18:43:22.991Z,24.40
2023-09-08T18:45:55.705Z,31.30
2023-09-08T18:48:31.720Z,27.30
2023-09-08T18:51:04.718Z,31.00
2023-09-08T18:53:39.391Z,26.30
2023-09-08T18:56:12.521Z,30.40
2023-09-08T18:58:48.484Z,28.50
2023-09-08T19:01:21.255Z,28.80
2023-09-08T19:03:53.978Z,32.70
2023-09-08T19:06:26.513Z,32.50
2023-09-08T19:08:59.634Z,32.70
2023-09-08T19:11:33.960Z,42.00
2023-09-08T19:14:08.461Z,41.10
2023-09-08T19:16:41.090Z,36.90
2023-09-08T19:19:19.223Z,33.40
2023-09-08T19:21:51.760Z,36.40
2023-09-08T19:24:25.725Z,34.70
2023-09-08T19:26:58.504Z,34.00
2023-09-08T19:29:32.831Z,33.30
2023-09-08T19:32:06.846Z,33.20
2023-09-08T19:34:39.654Z,35.20
2023-09-08T19:37:12.529Z,35.20
2023-09-08T19:39:46.389Z,40.20
2023-09-08T19:42:19.148Z,39.40
2023-09-08T19:44:51.925Z,38.40
2023-09-08T19:47:24.672Z,44.50
2023-09-08T19:49:57.340Z,41.30
2023-09-08T19:52:30.106Z,41.20
2023-09-08T19:55:03.013Z,47.80
2023-09-08T19:57:35.774Z,42.10
2023-09-08T20:00:10.470Z,50.20
2023-09-08T20:02:48.332Z,49.40
2023-09-08T20:05:21.132Z,53.30
2023-09-08T20:07:54.766Z,52.20
2023-09-08T20:10:35.155Z,48.40
2023-09-08T20:13:09.453Z,52.70
2023-09-08T20:15:42.027Z,50.40
2023-09-08T20:18:14.991Z,51.80
2023-09-08T20:20:47.817Z,55.30
2023-09-08T20:23:20.622Z,47.60
2023-09-08T20:25:54.919Z,44.30
2023-09-08T20:28:30.584Z,45.80
2023-09-08T20:33:39.669Z,46.60
2023-09-08T20:36:12.854Z,46.90
2023-09-08T20:38:45.628Z,50.40
2023-09-08T20:41:18.164Z,53.10
2023-09-08T20:43:51.005Z,50.40
2023-09-08T20:46:23.748Z,52.20
2023-09-08T20:48:56.242Z,49.60
2023-09-08T20:51:28.742Z,51.40
2023-09-08T20:54:03.442Z,46.70
2023-09-08T20:56:40.038Z,49.60
2023-09-08T20:59:12.828Z,49.10
2023-09-08T21:01:45.369Z,51.30
2023-09-08T21:04:21.099Z,47.80
2023-09-08T21:06:55.222Z,47.80
2023-09-08T21:09:28.119Z,45.10
2023-09-08T21:12:00.717Z,45.80
2023-09-08T21:14:33.415Z,42.30
2023-09-08T21:17:06.445Z,47.30
2023-09-08T21:19:38.948Z,42.60
2023-09-08T21:22:11.646Z,48.50
2023-09-08T21:24:47.940Z,48.60
2023-09-08T21:27:23.003Z,45.50
2023-09-08T21:30:06.508Z,47.00
2023-09-08T21:32:40.026Z,43.80
2023-09-08T21:35:13.425Z,44.90
2023-09-08T21:37:47.885Z,43.50
2023-09-08T21:40:43.519Z,44.70
2023-09-08T21:43:16.162Z,44.30
2023-09-08T21:46:07.662Z,42.90
2023-09-08T21:48:50.753Z,44.50
2023-09-08T21:51:47.399Z,44.90
2023-09-08T21:54:40.352Z,41.90
2023-09-08T21:57:33.417Z,42.60
2023-09-08T22:00:22.479Z,44.60
2023-09-08T22:03:01.074Z,43.40
2023-09-08T22:05:34.592Z,44.80
2023-09-08T22:08:11.155Z,41.80
2023-09-08T22:11:08.295Z,43.60
2023-09-08T22:13:45.090Z,42.00
2023-09-08T22:16:21.136Z,43.70
2023-09-08T22:19:15.306Z,42.00
2023-09-08T22:22:09.041Z,44.00
2023-09-08T22:24:45.644Z,40.90
2023-09-08T22:27:23.957Z,43.00
2023-09-08T22:30:17.598Z,45.60
2023-09-08T22:33:11.870Z,46.70
2023-09-08T22:35:55.436Z,45.00
2023-09-08T22:38:32.051Z,43.10
2023-09-08T22:41:08.490Z,43.40
2023-09-08T22:43:44.397Z,42.10
2023-09-08T22:46:37.477Z,43.00
2023-09-08T22:49:14.051Z,43.20
2023-09-08T22:52:07.987Z,44.40
2023-09-08T22:55:13.008Z,41.10
2023-09-08T22:58:16.061Z,44.70
2023-09-08T23:00:49.019Z,44.10
2023-09-08T23:03:21.971Z,40.50
2023-09-08T23:06:05.819Z,43.70
2023-09-08T23:08:49.588Z,39.80
2023-09-08T23:11:31.786Z,44.30
2023-09-08T23:14:27.557Z,44.00
2023-09-08T23:17:11.137Z,43.30
2023-09-08T23:19:43.474Z,44.00
2023-09-08T23:22:19.544Z,43.30
2023-09-08T23:24:52.412Z,44.00
2023-09-08T23:27:28.261Z,45.30
2023-09-08T23:30:05.080Z,43.70
2023-09-08T23:32:58.153Z,45.90
2023-09-08T23:35:31.627Z,43.00
2023-09-08T23:38:06.962Z,41.00
2023-09-08T23:40:41.076Z,42.50
2023-09-08T23:43:24.999Z,40.90
2023-09-08T23:46:01.078Z,39.50
2023-09-08T23:48:44.814Z,41.40
2023-09-08T23:51:19.603Z,39.70
2023-09-08T23:54:12.500Z,42.70
2023-09-08T23:56:47.263Z,40.40
2023-09-08T23:59:20.670Z,44.50
